sensor_id;sensor_type;location;lat;lon;timestamp;temperature;humidity
14014;DHT22;49110;52.584;13.408;2023-08-20T00:00:46;26.20;99.90
14014;DHT22;49110;52.584;13.408;2023-08-20T00:01:49;26.20;99.90
14014;DHT22;49110;52.584;13.408;2023-08-20T00:02:58;26.20;99.90
14014;DHT22;49110;52.584;13.408;2023-08-20T00:04:01;26.20;99.90
14014;DHT22;49110;52.584;13.408;2023-08-20T00:05:03;26.20;99.90
14014;DHT22;49110;52.584;13.408;2023-08-20T00:06:04;26.10;99.90
14014;DHT22;49110;52.584;13.408;2023-08-20T00:07:05;26.20;99.90
14014;DHT22;49110;52.584;13.408;2023-08-20T00:08:06;26.20;99.90
14014;DHT22;49110;52.584;13.408;2023-08-20T00:09:07;26.20;99.90
14014;DHT22;49110;52.584;13.408;2023-08-20T00:10:08;26.10;99.90
14014;DHT22;49110;52.584;13.408;2023-08-20T00:11:11;26.20;99.90
14014;DHT22;49110;52.584;13.408;2023-08-20T00:12:12;26.10;99.90
14014;DHT22;49110;52.584;13.408;2023-08-20T00:13:12;26.10;99.90
14014;DHT22;49110;52.584;13.408;2023-08-20T00:14:16;26.10;99.90
14014;DHT22;49110;52.584;13.408;2023-08-20T00:15:17;26.10;99.90
14014;DHT22;49110;52.584;13.408;2023-08-20T00:16:20;26.00;99.90
14014;DHT22;49110;52.584;13.408;2023-08-20T00:17:21;26.00;99.90
14014;DHT22;49110;52.584;13.408;2023-08-20T00:18:22;26.00;99.90
14014;DHT22;49110;52.584;13.408;2023-08-20T00:19:22;26.00;99.90
14014;DHT22;49110;52.584;13.408;2023-08-20T00:20:24;26.00;99.90
14014;DHT22;49110;52.584;13.408;2023-08-20T00:21:25;26.00;99.90
14014;DHT22;49110;52.584;13.408;2023-08-20T00:22:28;26.00;99.90
14014;DHT22;49110;52.584;13.408;2023-08-20T00:23:30;25.90;99.90
14014;DHT22;49110;52.584;13.408;2023-08-20T00:24:31;25.90;99.90
14014;DHT22;49110;52.584;13.408;2023-08-20T00:25:32;25.90;99.90
14014;DHT22;49110;52.584;13.408;2023-08-20T00:26:32;26.00;99.90
14014;DHT22;49110;52.584;13.408;2023-08-20T00:27:33;26.00;99.90
14014;DHT22;49110;52.584;13.408;2023-08-20T00:28:33;26.00;99.90
14014;DHT22;49110;52.584;13.408;2023-08-20T00:29:37;26.00;99.90
14014;DHT22;49110;52.584;13.408;2023-08-20T00:30:38;26.00;99.90
14014;DHT22;49110;52.584;13.408;2023-08-20T00:31:38;26.00;99.90
14014;DHT22;49110;52.584;13.408;2023-08-20T00:32:39;25.90;99.90
14014;DHT22;49110;52.584;13.408;2023-08-20T00:33:39;26.00;99.90
14014;DHT22;49110;52.584;13.408;2023-08-20T00:34:40;25.90;99.90
14014;DHT22;49110;52.584;13.408;2023-08-20T00:35:40;25.90;99.90
14014;DHT22;49110;52.584;13.408;2023-08-20T00:36:41;25.90;99.90
14014;DHT22;49110;52.584;13.408;2023-08-20T00:37:41;25.90;99.90
14014;DHT22;49110;52.584;13.408;2023-08-20T00:38:41;25.90;99.90
14014;DHT22;49110;52.584;13.408;2023-08-20T00:39:42;25.90;99.90
14014;DHT22;49110;52.584;13.408;2023-08-20T00:40:42;25.90;99.90
14014;DHT22;49110;52.584;13.408;2023-08-20T00:41:43;25.90;99.90
14014;DHT22;49110;52.584;13.408;2023-08-20T00:42:43;25.90;99.90
14014;DHT22;49110;52.584;13.408;2023-08-20T00:43:44;25.80;99.90
14014;DHT22;49110;52.584;13.408;2023-08-20T00:44:44;25.80;99.90
14014;DHT22;49110;52.584;13.408;2023-08-20T00:45:45;25.80;99.90
14014;DHT22;49110;52.584;13.408;2023-08-20T00:46:45;25.80;99.90
14014;DHT22;49110;52.584;13.408;2023-08-20T00:47:46;25.80;99.90
14014;DHT22;49110;52.584;13.408;2023-08-20T00:48:47;25.80;99.90
14014;DHT22;49110;52.584;13.408;2023-08-20T00:49:48;25.80;99.90
14014;DHT22;49110;52.584;13.408;2023-08-20T00:50:49;25.90;99.90
14014;DHT22;49110;52.584;13.408;2023-08-20T00:51:50;25.90;99.90
14014;DHT22;49110;52.584;13.408;2023-08-20T00:52:51;25.90;99.90
14014;DHT22;49110;52.584;13.408;2023-08-20T00:53:51;25.80;99.90
14014;DHT22;49110;52.584;13.408;2023-08-20T00:54:52;25.80;99.90
14014;DHT22;49110;52.584;13.408;2023-08-20T00:55:53;25.80;99.90
14014;DHT22;49110;52.584;13.408;2023-08-20T00:56:54;25.80;99.90
14014;DHT22;49110;52.584;13.408;2023-08-20T00:57:54;25.80;99.90
14014;DHT22;49110;52.584;13.408;2023-08-20T00:58:55;25.70;99.90
14014;DHT22;49110;52.584;13.408;2023-08-20T00:59:56;25.80;99.90
14014;DHT22;49110;52.584;13.408;2023-08-20T01:00:57;25.80;99.90
14014;DHT22;49110;52.584;13.408;2023-08-20T01:01:57;25.70;99.90
14014;DHT22;49110;52.584;13.408;2023-08-20T01:02:58;25.80;99.90
14014;DHT22;49110;52.584;13.408;2023-08-20T01:03:59;25.80;99.90
14014;DHT22;49110;52.584;13.408;2023-08-20T01:05:00;25.80;99.90
14014;DHT22;49110;52.584;13.408;2023-08-20T01:06:15;25.80;99.90
14014;DHT22;49110;52.584;13.408;2023-08-20T01:07:29;25.80;99.90
14014;DHT22;49110;52.584;13.408;2023-08-20T01:08:38;25.80;99.90
14014;DHT22;49110;52.584;13.408;2023-08-20T01:09:57;25.80;99.90
14014;DHT22;49110;52.584;13.408;2023-08-20T01:11:08;25.80;99.90
14014;DHT22;49110;52.584;13.408;2023-08-20T01:12:10;25.80;99.90
14014;DHT22;49110;52.584;13.408;2023-08-20T01:13:11;25.80;99.90
14014;DHT22;49110;52.584;13.408;2023-08-20T01:14:15;25.70;99.90
14014;DHT22;49110;52.584;13.408;2023-08-20T01:15:16;25.80;99.90
14014;DHT22;49110;52.584;13.408;2023-08-20T01:16:17;25.80;99.90
14014;DHT22;49110;52.584;13.408;2023-08-20T01:17:17;25.80;99.90
14014;DHT22;49110;52.584;13.408;2023-08-20T01:18:18;25.80;99.90
14014;DHT22;49110;52.584;13.408;2023-08-20T01:19:20;25.80;99.90
14014;DHT22;49110;52.584;13.408;2023-08-20T01:20:24;25.80;99.90
14014;DHT22;49110;52.584;13.408;2023-08-20T01:21:41;25.70;99.90
14014;DHT22;49110;52.584;13.408;2023-08-20T01:22:49;25.70;99.90
14014;DHT22;49110;52.584;13.408;2023-08-20T01:24:05;25.70;99.90
14014;DHT22;49110;52.584;13.408;2023-08-20T01:25:40;25.70;99.90
14014;DHT22;49110;52.584;13.408;2023-08-20T01:28:30;25.70;99.90
14014;DHT22;49110;52.584;13.408;2023-08-20T01:29:31;25.70;99.90
14014;DHT22;49110;52.584;13.408;2023-08-20T01:30:32;25.70;99.90
14014;DHT22;49110;52.584;13.408;2023-08-20T01:31:34;25.70;99.90
14014;DHT22;49110;52.584;13.408;2023-08-20T01:32:36;25.60;99.90
14014;DHT22;49110;52.584;13.408;2023-08-20T01:33:37;25.70;99.90
14014;DHT22;49110;52.584;13.408;2023-08-20T01:34:38;25.70;99.90
14014;DHT22;49110;52.584;13.408;2023-08-20T01:35:38;25.60;99.90
14014;DHT22;49110;52.584;13.408;2023-08-20T01:36:39;25.60;99.90
14014;DHT22;49110;52.584;13.408;2023-08-20T01:37:40;25.70;99.90
14014;DHT22;49110;52.584;13.408;2023-08-20T01:38:40;25.70;99.90
14014;DHT22;49110;52.584;13.408;2023-08-20T01:39:41;25.60;99.90
14014;DHT22;49110;52.584;13.408;2023-08-20T01:40:41;25.60;99.90
14014;DHT22;49110;52.584;13.408;2023-08-20T01:41:42;25.60;99.90
14014;DHT22;49110;52.584;13.408;2023-08-20T01:42:42;25.60;99.90
14014;DHT22;49110;52.584;13.408;2023-08-20T01:43:43;25.60;99.90
14014;DHT22;49110;52.584;13.408;2023-08-20T01:44:43;25.60;99.90
14014;DHT22;49110;52.584;13.408;2023-08-20T01:45:44;25.60;99.90
14014;DHT22;49110;52.584;13.408;2023-08-20T01:46:45;25.60;99.90
14014;DHT22;49110;52.584;13.408;2023-08-20T01:47:45;25.60;99.90
14014;DHT22;49110;52.584;13.408;2023-08-20T01:48:45;25.60;99.90
14014;DHT22;49110;52.584;13.408;2023-08-20T01:49:46;25.60;99.90
14014;DHT22;49110;52.584;13.408;2023-08-20T01:50:46;25.60;99.90
14014;DHT22;49110;52.584;13.408;2023-08-20T01:51:47;25.60;99.90
14014;DHT22;49110;52.584;13.408;2023-08-20T01:52:47;25.60;99.90
14014;DHT22;49110;52.584;13.408;2023-08-20T01:53:48;25.60;99.90
14014;DHT22;49110;52.584;13.408;2023-08-20T01:54:48;25.60;99.90
14014;DHT22;49110;52.584;13.408;2023-08-20T01:55:49;25.50;99.90
14014;DHT22;49110;52.584;13.408;2023-08-20T01:56:49;25.60;99.90
14014;DHT22;49110;52.584;13.408;2023-08-20T01:57:50;25.50;99.90
14014;DHT22;49110;52.584;13.408;2023-08-20T01:58:50;25.50;99.90
14014;DHT22;49110;52.584;13.408;2023-08-20T01:59:51;25.50;99.90
14014;DHT22;49110;52.584;13.408;2023-08-20T02:00:51;25.60;99.90
14014;DHT22;49110;52.584;13.408;2023-08-20T02:01:52;25.50;99.90
14014;DHT22;49110;52.584;13.408;2023-08-20T02:02:52;25.60;99.90
14014;DHT22;49110;52.584;13.408;2023-08-20T02:03:53;25.60;99.90
14014;DHT22;49110;52.584;13.408;2023-08-20T02:04:53;25.50;99.90
14014;DHT22;49110;52.584;13.408;2023-08-20T02:05:54;25.50;99.90
14014;DHT22;49110;52.584;13.408;2023-08-20T02:06:54;25.50;99.90
14014;DHT22;49110;52.584;13.408;2023-08-20T02:07:55;25.50;99.90
14014;DHT22;49110;52.584;13.408;2023-08-20T02:08:56;25.50;99.90
14014;DHT22;49110;52.584;13.408;2023-08-20T02:09:56;25.50;99.90
14014;DHT22;49110;52.584;13.408;2023-08-20T02:11:04;25.50;99.90
14014;DHT22;49110;52.584;13.408;2023-08-20T02:12:04;25.40;99.90
14014;DHT22;49110;52.584;13.408;2023-08-20T02:13:05;25.50;99.90
14014;DHT22;49110;52.584;13.408;2023-08-20T02:14:07;25.50;99.90
14014;DHT22;49110;52.584;13.408;2023-08-20T02:15:08;25.50;99.90
14014;DHT22;49110;52.584;13.408;2023-08-20T02:16:09;25.40;99.90
14014;DHT22;49110;52.584;13.408;2023-08-20T02:17:09;25.40;99.90
14014;DHT22;49110;52.584;13.408;2023-08-20T02:18:10;25.50;99.90
14014;DHT22;49110;52.584;13.408;2023-08-20T02:19:10;25.40;99.90
14014;DHT22;49110;52.584;13.408;2023-08-20T02:20:11;25.40;99.90
14014;DHT22;49110;52.584;13.408;2023-08-20T02:21:11;25.40;99.90
14014;DHT22;49110;52.584;13.408;2023-08-20T02:22:12;25.40;99.90
14014;DHT22;49110;52.584;13.408;2023-08-20T02:23:12;25.40;99.90
14014;DHT22;49110;52.584;13.408;2023-08-20T02:24:13;25.40;99.90
14014;DHT22;49110;52.584;13.408;2023-08-20T02:25:13;25.40;99.90
14014;DHT22;49110;52.584;13.408;2023-08-20T02:26:14;25.40;99.90
14014;DHT22;49110;52.584;13.408;2023-08-20T02:27:15;25.40;99.90
14014;DHT22;49110;52.584;13.408;2023-08-20T02:28:15;25.30;99.90
14014;DHT22;49110;52.584;13.408;2023-08-20T02:29:16;25.40;99.90
14014;DHT22;49110;52.584;13.408;2023-08-20T02:30:16;25.30;99.90
14014;DHT22;49110;52.584;13.408;2023-08-20T02:31:17;25.30;99.90
14014;DHT22;49110;52.584;13.408;2023-08-20T02:32:17;25.30;99.90
14014;DHT22;49110;52.584;13.408;2023-08-20T02:33:18;25.30;99.90
14014;DHT22;49110;52.584;13.408;2023-08-20T02:34:19;25.30;99.90
14014;DHT22;49110;52.584;13.408;2023-08-20T02:35:19;25.30;99.90
14014;DHT22;49110;52.584;13.408;2023-08-20T02:36:19;25.30;99.90
14014;DHT22;49110;52.584;13.408;2023-08-20T02:37:20;25.30;99.90
14014;DHT22;49110;52.584;13.408;2023-08-20T02:38:20;25.30;99.90
14014;DHT22;49110;52.584;13.408;2023-08-20T02:39:21;25.30;99.90
14014;DHT22;49110;52.584;13.408;2023-08-20T02:40:21;25.30;99.90
14014;DHT22;49110;52.584;13.408;2023-08-20T02:41:22;25.30;99.90
14014;DHT22;49110;52.584;13.408;2023-08-20T02:42:22;25.30;99.90
14014;DHT22;49110;52.584;13.408;2023-08-20T02:43:23;25.30;99.90
14014;DHT22;49110;52.584;13.408;2023-08-20T02:44:23;25.30;99.90
14014;DHT22;49110;52.584;13.408;2023-08-20T02:45:24;25.30;99.90
14014;DHT22;49110;52.584;13.408;2023-08-20T02:46:24;25.20;99.90
14014;DHT22;49110;52.584;13.408;2023-08-20T02:47:25;25.20;99.90
14014;DHT22;49110;52.584;13.408;2023-08-20T02:48:26;25.20;99.90
14014;DHT22;49110;52.584;13.408;2023-08-20T02:49:27;25.20;99.90
14014;DHT22;49110;52.584;13.408;2023-08-20T02:50:27;25.20;99.90
14014;DHT22;49110;52.584;13.408;2023-08-20T02:51:28;25.20;99.90
14014;DHT22;49110;52.584;13.408;2023-08-20T02:52:28;25.20;99.90
14014;DHT22;49110;52.584;13.408;2023-08-20T02:53:29;25.20;99.90
14014;DHT22;49110;52.584;13.408;2023-08-20T02:54:29;25.20;99.90
14014;DHT22;49110;52.584;13.408;2023-08-20T02:55:32;25.20;99.90
14014;DHT22;49110;52.584;13.408;2023-08-20T02:56:33;25.20;99.90
14014;DHT22;49110;52.584;13.408;2023-08-20T02:57:34;25.20;99.90
14014;DHT22;49110;52.584;13.408;2023-08-20T02:58:34;25.20;99.90
14014;DHT22;49110;52.584;13.408;2023-08-20T02:59:34;25.20;99.90
14014;DHT22;49110;52.584;13.408;2023-08-20T03:00:35;25.20;99.90
14014;DHT22;49110;52.584;13.408;2023-08-20T03:01:36;25.20;99.90
14014;DHT22;49110;52.584;13.408;2023-08-20T03:02:37;25.20;99.90
14014;DHT22;49110;52.584;13.408;2023-08-20T03:03:37;25.20;99.90
14014;DHT22;49110;52.584;13.408;2023-08-20T03:04:38;25.20;99.90
14014;DHT22;49110;52.584;13.408;2023-08-20T03:05:38;25.20;99.90
14014;DHT22;49110;52.584;13.408;2023-08-20T03:06:39;25.10;99.90
14014;DHT22;49110;52.584;13.408;2023-08-20T03:07:40;25.20;99.90
14014;DHT22;49110;52.584;13.408;2023-08-20T03:08:40;25.20;99.90
14014;DHT22;49110;52.584;13.408;2023-08-20T03:09:40;25.20;99.90
14014;DHT22;49110;52.584;13.408;2023-08-20T03:10:41;25.20;99.90
14014;DHT22;49110;52.584;13.408;2023-08-20T03:11:41;25.20;99.90
14014;DHT22;49110;52.584;13.408;2023-08-20T03:12:42;25.20;99.90
14014;DHT22;49110;52.584;13.408;2023-08-20T03:13:42;25.20;99.90
14014;DHT22;49110;52.584;13.408;2023-08-20T03:14:43;25.20;99.90
14014;DHT22;49110;52.584;13.408;2023-08-20T03:15:43;25.20;99.90
14014;DHT22;49110;52.584;13.408;2023-08-20T03:16:44;25.20;99.90
14014;DHT22;49110;52.584;13.408;2023-08-20T03:17:44;25.20;99.90
14014;DHT22;49110;52.584;13.408;2023-08-20T03:18:45;25.20;99.90
14014;DHT22;49110;52.584;13.408;2023-08-20T03:19:56;25.10;99.90
14014;DHT22;49110;52.584;13.408;2023-08-20T03:20:57;25.10;99.90
14014;DHT22;49110;52.584;13.408;2023-08-20T03:21:57;25.10;99.90
14014;DHT22;49110;52.584;13.408;2023-08-20T03:22:58;25.10;99.90
14014;DHT22;49110;52.584;13.408;2023-08-20T03:23:58;25.10;99.90
14014;DHT22;49110;52.584;13.408;2023-08-20T03:24:58;25.10;99.90
14014;DHT22;49110;52.584;13.408;2023-08-20T03:25:59;25.10;99.90
14014;DHT22;49110;52.584;13.408;2023-08-20T03:26:59;25.00;99.90
14014;DHT22;49110;52.584;13.408;2023-08-20T03:28:00;25.10;99.90
14014;DHT22;49110;52.584;13.408;2023-08-20T03:29:00;25.00;99.90
14014;DHT22;49110;52.584;13.408;2023-08-20T03:30:02;25.00;99.90
14014;DHT22;49110;52.584;13.408;2023-08-20T03:31:03;25.00;99.90
14014;DHT22;49110;52.584;13.408;2023-08-20T03:32:03;25.10;99.90
14014;DHT22;49110;52.584;13.408;2023-08-20T03:33:04;25.00;99.90
14014;DHT22;49110;52.584;13.408;2023-08-20T03:34:04;25.00;99.90
14014;DHT22;49110;52.584;13.408;2023-08-20T03:35:05;25.00;99.90
14014;DHT22;49110;52.584;13.408;2023-08-20T03:36:06;25.00;99.90
14014;DHT22;49110;52.584;13.408;2023-08-20T03:37:07;25.00;99.90
14014;DHT22;49110;52.584;13.408;2023-08-20T03:38:07;25.00;99.90
14014;DHT22;49110;52.584;13.408;2023-08-20T03:39:07;25.00;99.90
14014;DHT22;49110;52.584;13.408;2023-08-20T03:40:08;24.90;99.90
14014;DHT22;49110;52.584;13.408;2023-08-20T03:41:09;24.90;99.90
14014;DHT22;49110;52.584;13.408;2023-08-20T03:42:09;24.90;99.90
14014;DHT22;49110;52.584;13.408;2023-08-20T03:43:10;24.90;99.90
14014;DHT22;49110;52.584;13.408;2023-08-20T03:44:10;24.90;99.90
14014;DHT22;49110;52.584;13.408;2023-08-20T03:45:11;24.90;99.90
14014;DHT22;49110;52.584;13.408;2023-08-20T03:46:11;24.90;99.90
14014;DHT22;49110;52.584;13.408;2023-08-20T03:47:12;24.90;99.90
14014;DHT22;49110;52.584;13.408;2023-08-20T03:48:12;24.90;99.90
14014;DHT22;49110;52.584;13.408;2023-08-20T03:49:13;24.90;99.90
14014;DHT22;49110;52.584;13.408;2023-08-20T03:50:13;24.90;99.90
14014;DHT22;49110;52.584;13.408;2023-08-20T03:51:14;24.90;99.90
14014;DHT22;49110;52.584;13.408;2023-08-20T03:52:14;24.90;99.90
14014;DHT22;49110;52.584;13.408;2023-08-20T03:53:15;24.90;99.90
14014;DHT22;49110;52.584;13.408;2023-08-20T03:54:15;24.80;99.90
14014;DHT22;49110;52.584;13.408;2023-08-20T03:55:16;24.80;99.90
14014;DHT22;49110;52.584;13.408;2023-08-20T03:56:16;24.90;99.90
14014;DHT22;49110;52.584;13.408;2023-08-20T03:57:17;24.80;99.90
14014;DHT22;49110;52.584;13.408;2023-08-20T03:58:17;24.90;99.90
14014;DHT22;49110;52.584;13.408;2023-08-20T03:59:18;24.90;99.90
14014;DHT22;49110;52.584;13.408;2023-08-20T04:00:18;24.90;99.90
14014;DHT22;49110;52.584;13.408;2023-08-20T04:01:19;24.90;99.90
14014;DHT22;49110;52.584;13.408;2023-08-20T04:02:19;24.80;99.90
14014;DHT22;49110;52.584;13.408;2023-08-20T04:03:20;24.90;99.90
14014;DHT22;49110;52.584;13.408;2023-08-20T04:04:20;24.80;99.90
14014;DHT22;49110;52.584;13.408;2023-08-20T04:05:22;24.80;99.90
14014;DHT22;49110;52.584;13.408;2023-08-20T04:06:22;24.70;99.90
14014;DHT22;49110;52.584;13.408;2023-08-20T04:07:22;24.80;99.90
14014;DHT22;49110;52.584;13.408;2023-08-20T04:08:23;24.70;99.90
14014;DHT22;49110;52.584;13.408;2023-08-20T04:09:23;24.70;99.90
14014;DHT22;49110;52.584;13.408;2023-08-20T04:10:24;24.70;99.90
14014;DHT22;49110;52.584;13.408;2023-08-20T04:11:24;24.70;99.90
14014;DHT22;49110;52.584;13.408;2023-08-20T04:12:25;24.70;99.90
14014;DHT22;49110;52.584;13.408;2023-08-20T04:13:25;24.70;99.90
14014;DHT22;49110;52.584;13.408;2023-08-20T04:14:25;24.70;99.90
14014;DHT22;49110;52.584;13.408;2023-08-20T04:15:26;24.70;99.90
14014;DHT22;49110;52.584;13.408;2023-08-20T04:16:27;24.80;99.90
14014;DHT22;49110;52.584;13.408;2023-08-20T04:17:28;24.70;99.90
14014;DHT22;49110;52.584;13.408;2023-08-20T04:18:28;24.70;99.90
14014;DHT22;49110;52.584;13.408;2023-08-20T04:19:29;24.70;99.90
14014;DHT22;49110;52.584;13.408;2023-08-20T04:20:30;24.70;99.90
14014;DHT22;49110;52.584;13.408;2023-08-20T04:21:30;24.70;99.90
14014;DHT22;49110;52.584;13.408;2023-08-20T04:22:30;24.70;99.90
14014;DHT22;49110;52.584;13.408;2023-08-20T04:23:31;24.80;99.90
14014;DHT22;49110;52.584;13.408;2023-08-20T04:24:32;24.70;99.90
14014;DHT22;49110;52.584;13.408;2023-08-20T04:25:32;24.70;99.90
14014;DHT22;49110;52.584;13.408;2023-08-20T04:26:33;24.70;99.90
14014;DHT22;49110;52.584;13.408;2023-08-20T04:27:33;24.70;99.90
14014;DHT22;49110;52.584;13.408;2023-08-20T04:28:34;24.70;99.90
14014;DHT22;49110;52.584;13.408;2023-08-20T04:29:34;24.70;99.90
14014;DHT22;49110;52.584;13.408;2023-08-20T04:30:35;24.70;99.90
14014;DHT22;49110;52.584;13.408;2023-08-20T04:31:36;24.70;99.90
14014;DHT22;49110;52.584;13.408;2023-08-20T04:32:36;24.70;99.90
14014;DHT22;49110;52.584;13.408;2023-08-20T04:33:37;24.80;99.90
14014;DHT22;49110;52.584;13.408;2023-08-20T04:34:37;24.70;99.90
14014;DHT22;49110;52.584;13.408;2023-08-20T04:35:38;24.70;99.90
14014;DHT22;49110;52.584;13.408;2023-08-20T04:36:38;24.80;99.90
14014;DHT22;49110;52.584;13.408;2023-08-20T04:37:38;24.80;99.90
14014;DHT22;49110;52.584;13.408;2023-08-20T04:38:39;24.80;99.90
14014;DHT22;49110;52.584;13.408;2023-08-20T04:39:39;24.70;99.90
14014;DHT22;49110;52.584;13.408;2023-08-20T04:40:40;24.80;99.90
14014;DHT22;49110;52.584;13.408;2023-08-20T04:41:40;24.80;99.90
14014;DHT22;49110;52.584;13.408;2023-08-20T04:42:41;24.80;99.90
14014;DHT22;49110;52.584;13.408;2023-08-20T04:43:41;24.70;99.90
14014;DHT22;49110;52.584;13.408;2023-08-20T04:44:42;24.70;99.90
14014;DHT22;49110;52.584;13.408;2023-08-20T04:45:42;24.70;99.90
14014;DHT22;49110;52.584;13.408;2023-08-20T04:46:42;24.80;99.90
14014;DHT22;49110;52.584;13.408;2023-08-20T04:47:43;24.80;99.90
14014;DHT22;49110;52.584;13.408;2023-08-20T04:48:44;24.80;99.90
14014;DHT22;49110;52.584;13.408;2023-08-20T04:49:44;24.80;99.90
14014;DHT22;49110;52.584;13.408;2023-08-20T04:50:45;24.80;99.90
14014;DHT22;49110;52.584;13.408;2023-08-20T04:51:45;24.80;99.90
14014;DHT22;49110;52.584;13.408;2023-08-20T04:52:46;24.70;99.90
14014;DHT22;49110;52.584;13.408;2023-08-20T04:53:46;24.70;99.90
14014;DHT22;49110;52.584;13.408;2023-08-20T04:54:47;24.70;99.90
14014;DHT22;49110;52.584;13.408;2023-08-20T04:55:48;24.70;99.90
14014;DHT22;49110;52.584;13.408;2023-08-20T04:56:48;24.80;99.90
14014;DHT22;49110;52.584;13.408;2023-08-20T04:57:49;24.80;99.90
14014;DHT22;49110;52.584;13.408;2023-08-20T04:58:49;24.80;99.90
14014;DHT22;49110;52.584;13.408;2023-08-20T04:59:50;24.80;99.90
14014;DHT22;49110;52.584;13.408;2023-08-20T05:00:50;24.80;99.90
14014;DHT22;49110;52.584;13.408;2023-08-20T05:01:51;24.80;99.90
14014;DHT22;49110;52.584;13.408;2023-08-20T05:02:51;24.80;99.90
14014;DHT22;49110;52.584;13.408;2023-08-20T05:03:52;24.70;99.90
14014;DHT22;49110;52.584;13.408;2023-08-20T05:04:52;24.80;99.90
14014;DHT22;49110;52.584;13.408;2023-08-20T05:05:52;24.80;99.90
14014;DHT22;49110;52.584;13.408;2023-08-20T05:06:53;24.80;99.90
14014;DHT22;49110;52.584;13.408;2023-08-20T05:07:53;24.80;99.90
14014;DHT22;49110;52.584;13.408;2023-08-20T05:08:54;24.80;99.90
14014;DHT22;49110;52.584;13.408;2023-08-20T05:09:54;24.80;99.90
14014;DHT22;49110;52.584;13.408;2023-08-20T05:10:55;24.80;99.90
14014;DHT22;49110;52.584;13.408;2023-08-20T05:11:55;24.80;99.90
14014;DHT22;49110;52.584;13.408;2023-08-20T05:12:56;24.80;99.90
14014;DHT22;49110;52.584;13.408;2023-08-20T05:13:56;24.80;99.90
14014;DHT22;49110;52.584;13.408;2023-08-20T05:14:56;24.80;99.90
14014;DHT22;49110;52.584;13.408;2023-08-20T05:15:57;24.90;99.90
14014;DHT22;49110;52.584;13.408;2023-08-20T05:16:57;24.80;99.90
14014;DHT22;49110;52.584;13.408;2023-08-20T05:17:58;24.80;99.90
14014;DHT22;49110;52.584;13.408;2023-08-20T05:18:59;24.80;99.90
14014;DHT22;49110;52.584;13.408;2023-08-20T05:19:59;24.80;99.90
14014;DHT22;49110;52.584;13.408;2023-08-20T05:21:00;24.90;99.90
14014;DHT22;49110;52.584;13.408;2023-08-20T05:22:00;24.90;99.90
14014;DHT22;49110;52.584;13.408;2023-08-20T05:23:01;24.90;99.90
14014;DHT22;49110;52.584;13.408;2023-08-20T05:24:01;25.00;99.90
14014;DHT22;49110;52.584;13.408;2023-08-20T05:25:02;25.00;99.90
14014;DHT22;49110;52.584;13.408;2023-08-20T05:26:02;25.00;99.90
14014;DHT22;49110;52.584;13.408;2023-08-20T05:27:13;25.00;99.90
14014;DHT22;49110;52.584;13.408;2023-08-20T05:28:14;25.00;99.90
14014;DHT22;49110;52.584;13.408;2023-08-20T05:29:15;25.00;99.90
14014;DHT22;49110;52.584;13.408;2023-08-20T05:30:15;25.10;99.90
14014;DHT22;49110;52.584;13.408;2023-08-20T05:31:16;25.10;99.90
14014;DHT22;49110;52.584;13.408;2023-08-20T05:32:16;25.10;99.90
14014;DHT22;49110;52.584;13.408;2023-08-20T05:33:17;25.10;99.90
14014;DHT22;49110;52.584;13.408;2023-08-20T05:34:17;25.00;99.90
14014;DHT22;49110;52.584;13.408;2023-08-20T05:35:18;25.10;99.90
14014;DHT22;49110;52.584;13.408;2023-08-20T05:36:18;25.10;99.90
14014;DHT22;49110;52.584;13.408;2023-08-20T05:37:19;25.10;99.90
14014;DHT22;49110;52.584;13.408;2023-08-20T05:38:20;25.10;99.90
14014;DHT22;49110;52.584;13.408;2023-08-20T05:39:20;25.10;99.90
14014;DHT22;49110;52.584;13.408;2023-08-20T05:40:21;25.10;99.90
14014;DHT22;49110;52.584;13.408;2023-08-20T05:41:21;25.20;99.90
14014;DHT22;49110;52.584;13.408;2023-08-20T05:42:22;25.10;99.90
14014;DHT22;49110;52.584;13.408;2023-08-20T05:43:22;25.20;99.90
14014;DHT22;49110;52.584;13.408;2023-08-20T05:44:23;25.10;99.90
14014;DHT22;49110;52.584;13.408;2023-08-20T05:45:23;25.10;99.90
14014;DHT22;49110;52.584;13.408;2023-08-20T05:46:23;25.10;99.90
14014;DHT22;49110;52.584;13.408;2023-08-20T05:47:24;25.20;99.90
14014;DHT22;49110;52.584;13.408;2023-08-20T05:48:24;25.20;99.90
14014;DHT22;49110;52.584;13.408;2023-08-20T05:49:25;25.20;99.90
14014;DHT22;49110;52.584;13.408;2023-08-20T05:50:25;25.30;99.90
14014;DHT22;49110;52.584;13.408;2023-08-20T05:51:26;25.30;99.90
14014;DHT22;49110;52.584;13.408;2023-08-20T05:52:26;25.20;99.90
14014;DHT22;49110;52.584;13.408;2023-08-20T05:53:27;25.30;99.90
14014;DHT22;49110;52.584;13.408;2023-08-20T05:54:28;25.40;99.90
14014;DHT22;49110;52.584;13.408;2023-08-20T05:55:28;25.30;99.90
14014;DHT22;49110;52.584;13.408;2023-08-20T05:56:28;25.40;99.90
14014;DHT22;49110;52.584;13.408;2023-08-20T05:57:29;25.30;99.90
14014;DHT22;49110;52.584;13.408;2023-08-20T05:58:29;25.40;99.90
14014;DHT22;49110;52.584;13.408;2023-08-20T05:59:30;25.40;99.90
14014;DHT22;49110;52.584;13.408;2023-08-20T06:00:30;25.40;99.90
14014;DHT22;49110;52.584;13.408;2023-08-20T06:01:31;25.40;99.90
14014;DHT22;49110;52.584;13.408;2023-08-20T06:02:31;25.40;99.90
14014;DHT22;49110;52.584;13.408;2023-08-20T06:03:32;25.40;99.90
14014;DHT22;49110;52.584;13.408;2023-08-20T06:04:32;25.30;99.90
14014;DHT22;49110;52.584;13.408;2023-08-20T06:05:33;25.40;99.90
14014;DHT22;49110;52.584;13.408;2023-08-20T06:06:34;25.30;99.90
14014;DHT22;49110;52.584;13.408;2023-08-20T06:07:35;25.20;99.90
14014;DHT22;49110;52.584;13.408;2023-08-20T06:08:35;25.30;99.90
14014;DHT22;49110;52.584;13.408;2023-08-20T06:09:36;25.20;99.90
14014;DHT22;49110;52.584;13.408;2023-08-20T06:10:36;25.20;99.90
14014;DHT22;49110;52.584;13.408;2023-08-20T06:11:37;25.20;99.90
14014;DHT22;49110;52.584;13.408;2023-08-20T06:12:37;25.30;99.90
14014;DHT22;49110;52.584;13.408;2023-08-20T06:13:38;25.30;99.90
14014;DHT22;49110;52.584;13.408;2023-08-20T06:14:38;25.30;99.90
14014;DHT22;49110;52.584;13.408;2023-08-20T06:15:38;25.30;99.90
14014;DHT22;49110;52.584;13.408;2023-08-20T06:16:39;25.30;99.90
14014;DHT22;49110;52.584;13.408;2023-08-20T06:17:39;25.20;99.90
14014;DHT22;49110;52.584;13.408;2023-08-20T06:18:40;25.20;99.90
14014;DHT22;49110;52.584;13.408;2023-08-20T06:19:40;25.30;99.90
14014;DHT22;49110;52.584;13.408;2023-08-20T06:20:41;25.30;99.90
14014;DHT22;49110;52.584;13.408;2023-08-20T06:21:41;25.40;99.90